Cap Romuald — SVGN — position and weather

sailwx.info

Track history (hours):
 
Tides and Currents Weather Stations Pressure Air Temp Water Temp Dewpoint Dewpoint Depression Visibility Wind Speed Wind Dir Waves Ship Positions

Cap Romuald

Last reported at 2018-May-01 06:21 UTC. Time now 2018-May-20 13:53 UTC.
Position N 28°00' W 092°42'.
Warning: this ship's position is 19 days out of date.

Length 274 m; draft 10 m.

Type: Tanker. MMSI: 239574000.

Date/timePositionNaut miles runAvg speedWind from/ knotsBaromVisibWave heightAir tempDewpointWater temp
2018-May-01 06:21N 28°00' W 092°42'3 6.3
2018-May-01 05:56N 28°02' W 092°44'3 6.4
2018-May-01 05:30N 28°04' W 092°46'3 6.4
2018-May-01 05:00N 28°07' W 092°48'3 6.5
2018-May-01 04:29N 28°10' W 092°50'4 6.6
2018-May-01 03:52N 28°13' W 092°53'3 6.8
2018-May-01 03:26N 28°15' W 092°55'3 6.8
2018-May-01 02:59N 28°18' W 092°57'3 6.7
2018-May-01 02:30N 28°20' W 092°59'3 6.8
2018-May-01 02:00N 28°23' W 093°01'4 6.9
2018-May-01 01:28N 28°26' W 093°04'3 6.8
2018-May-01 00:59N 28°29' W 093°06'3 6.7
2018-May-01 00:29N 28°31' W 093°08'3 6.7
2018-May-01 00:00N 28°34' W 093°11'3 6.8
2018-Apr-30 23:30N 28°37' W 093°13'3 6.7
2018-Apr-30 23:00N 28°39' W 093°15'3 6.5
2018-Apr-30 22:29N 28°42' W 093°17'3 6.2
2018-Apr-30 22:01N 28°44' W 093°19'3 5.9
2018-Apr-30 21:29N 28°47' W 093°22'3 5.7
2018-Apr-30 20:59N 28°49' W 093°24'7 6.0
2018-Apr-30 19:51N 28°55' W 093°28'4 6.3
2018-Apr-30 19:14N 28°58' W 093°31'2 6.1
2018-Apr-30 18:59N 28°59' W 093°32'15 4.8
2018-Apr-30 15:59N 29°09' W 093°44'0 0.1
2018-Apr-30 14:35N 29°09' W 093°44'0 0.1
2018-Apr-30 13:32N 29°09' W 093°44'0 0.2
2018-Apr-30 13:29N 29°09' W 093°44'0 0.0
2018-Apr-30 11:50N 29°09' W 093°44'0 0.0
2018-Apr-30 11:29N 29°09' W 093°44'0 0.0
2018-Apr-30 10:59N 29°09' W 093°44'0 0.0
2018-Apr-30 08:26N 29°09' W 093°44'0 0.0
2018-Apr-30 07:41N 29°09' W 093°44'0 0.0
2018-Apr-30 07:29N 29°09' W 093°44'0 0.0
2018-Apr-30 06:59N 29°09' W 093°44'0 0.0
2018-Apr-30 06:29N 29°09' W 093°44'0 0.0
2018-Apr-30 05:50N 29°09' W 093°44'0 0.0
2018-Apr-30 05:29N 29°09' W 093°44'0 0.0
2018-Apr-30 04:59N 29°09' W 093°44'0 0.0
2018-Apr-30 04:29N 29°09' W 093°44'0 0.0
2018-Apr-30 03:59N 29°09' W 093°44'0 0.0
2018-Apr-30 03:29N 29°09' W 093°44'0 0.0
2018-Apr-30 02:50N 29°09' W 093°44'0 0.0
2018-Apr-30 02:20N 29°09' W 093°44'0 0.0
2018-Apr-30 01:59N 29°09' W 093°44'0 0.0
2018-Apr-30 01:29N 29°09' W 093°44'0 0.0
2018-Apr-30 00:56N 29°09' W 093°44'0 0.1
2018-Apr-30 00:26N 29°09' W 093°44'0 0.1
2018-Apr-29 23:59N 29°09' W 093°44'0 0.1
2018-Apr-29 23:14N 29°09' W 093°44'0 0.0
2018-Apr-29 22:53N 29°09' W 093°44'0 0.0
2018-Apr-29 22:29N 29°09' W 093°44'0 0.0
2018-Apr-29 21:38N 29°09' W 093°44'0 0.0
2018-Apr-29 21:26N 29°09' W 093°44'0 0.0
2018-Apr-29 19:05N 29°09' W 093°44'0 0.0
2018-Apr-29 18:50N 29°09' W 093°44'0 0.0
2018-Apr-29 18:26N 29°09' W 093°44'0 0.1
2018-Apr-29 17:59N 29°09' W 093°44'0 0.1
2018-Apr-29 17:29N 29°09' W 093°44'0 0.1
2018-Apr-29 16:59N 29°09' W 093°44'0 0.1
2018-Apr-29 16:26N 29°09' W 093°44'0 0.1
2018-Apr-29 15:59N 29°09' W 093°44'0 0.1
2018-Apr-29 15:29N 29°09' W 093°44'0 0.0
2018-Apr-29 14:53N 29°09' W 093°44'0 0.0
2018-Apr-29 14:29N 29°09' W 093°44'0 0.0
2018-Apr-29 13:59N 29°09' W 093°44'0 0.0
2018-Apr-29 13:29N 29°09' W 093°44'0 0.1
2018-Apr-29 10:59N 29°09' W 093°44'0 0.0
2018-Apr-29 10:17N 29°09' W 093°44'0 0.0
2018-Apr-29 09:56N 29°09' W 093°44'0 0.0
2018-Apr-29 09:20N 29°09' W 093°44'0 0.0
2018-Apr-29 08:59N 29°09' W 093°44'0 0.0
2018-Apr-29 08:17N 29°09' W 093°44'0 0.0
2018-Apr-29 07:56N 29°09' W 093°44'0 0.0
2018-Apr-29 07:20N 29°09' W 093°44'0 0.0
2018-Apr-29 06:50N 29°09' W 093°44'0 0.0
2018-Apr-29 06:26N 29°09' W 093°44'0 0.0
2018-Apr-29 05:59N 29°09' W 093°44'0 0.0
2018-Apr-29 05:29N 29°09' W 093°44'0 0.0
2018-Apr-29 04:59N 29°09' W 093°44'0 0.0
2018-Apr-29 04:29N 29°09' W 093°44'0 0.0
2018-Apr-29 03:59N 29°09' W 093°44'0 0.0
2018-Apr-29 03:23N 29°09' W 093°44'0 0.0
2018-Apr-29 02:53N 29°09' W 093°44'0 0.0
2018-Apr-29 02:29N 29°09' W 093°44'0 0.0
2018-Apr-29 01:50N 29°09' W 093°44'0 0.0
2018-Apr-29 01:29N 29°09' W 093°44'0 0.0
2018-Apr-28 16:05N 29°09' W 093°44'0 0.0
2018-Apr-28 15:59N 29°09' W 093°44'0 0.0
2018-Apr-28 15:29N 29°09' W 093°44'0 0.0
2018-Apr-28 14:56N 29°09' W 093°44'0 0.0
2018-Apr-28 13:44N 29°09' W 093°44'0 0.0
2018-Apr-28 13:29N 29°09' W 093°44'0 0.0
2018-Apr-28 12:50N 29°09' W 093°44'0 0.0
2018-Apr-28 12:29N 29°09' W 093°44'0 0.0
2018-Apr-28 11:44N 29°09' W 093°44'0 0.0
2018-Apr-28 11:29N 29°09' W 093°44'0 0.0
2018-Apr-28 10:56N 29°09' W 093°44'0 0.0
2018-Apr-28 10:26N 29°09' W 093°44'0 0.0
2018-Apr-28 09:59N 29°09' W 093°44'0 0.0
2018-Apr-28 09:29N 29°09' W 093°44'0 0.0
2018-Apr-28 08:59N 29°09' W 093°44'0 0.0
2018-Apr-28 08:02N 29°09' W 093°44'0 0.1
2018-Apr-28 07:56N 29°09' W 093°44'0 0.0
2018-Apr-28 07:26N 29°09' W 093°44'0 0.0
2018-Apr-28 06:53N 29°09' W 093°44'0 0.0
2018-Apr-28 06:20N 29°09' W 093°44'0 0.0
2018-Apr-28 05:59N 29°09' W 093°44'0 0.0
2018-Apr-28 02:26N 29°09' W 093°44'0 0.0
2018-Apr-28 01:53N 29°09' W 093°44'0 0.0
2018-Apr-27 11:23N 29°09' W 093°44'0 0.0
2018-Apr-27 09:32N 29°09' W 093°44'0 0.1
2018-Apr-27 09:17N 29°09' W 093°44'0 0.1
2018-Apr-27 07:50N 29°09' W 093°44'0 0.0
2018-Apr-26 17:23N 29°09' W 093°44'0 0.0
2018-Apr-26 15:53N 29°09' W 093°44'0 0.0
2018-Apr-26 15:20N 29°09' W 093°44'0 0.0
2018-Apr-26 14:32N 29°09' W 093°44'0 0.0
2018-Apr-26 12:56N 29°09' W 093°44'0 0.0
2018-Apr-26 12:20N 29°09' W 093°44'0 0.1
2018-Apr-26 11:59N 29°09' W 093°44'0 0.0
2018-Apr-26 11:29N 29°09' W 093°44'0 0.0
2018-Apr-26 05:26N 29°09' W 093°44'0 0.0
2018-Apr-26 04:59N 29°09' W 093°44'0 0.0
2018-Apr-26 04:29N 29°09' W 093°44'0 0.0
2018-Apr-26 03:59N 29°09' W 093°44'0 0.0
2018-Apr-26 03:29N 29°09' W 093°44'0 0.0
2018-Apr-26 02:44N 29°09' W 093°44'0 0.0
2018-Apr-26 02:29N 29°09' W 093°44'0 0.0
2018-Apr-26 01:59N 29°09' W 093°44'0 0.0
2018-Apr-25 22:59N 29°09' W 093°44'0 0.0
2018-Apr-25 21:11N 29°09' W 093°44'0 0.0
2018-Apr-25 20:50N 29°09' W 093°44'0 0.0
2018-Apr-25 20:26N 29°09' W 093°44'1 1.1
2018-Apr-25 19:48N 29°10' W 093°44'1 5.1
2018-Apr-25 19:30N 29°11' W 093°42'4 8.1
2018-Apr-25 19:00N 29°14' W 093°39'713.0
2018-Apr-25 18:30N 29°20' W 093°40'612.0
2018-Apr-25 18:00N 29°26' W 093°40'5 9.1
2018-Apr-25 17:30N 29°31' W 093°42'611.5
2018-Apr-25 17:00N 29°35' W 093°47'612.4
2018-Apr-25 16:30N 29°40' W 093°50'5 9.6
2018-Apr-25 16:00N 29°44' W 093°53'4 7.6
2018-Apr-25 15:30N 29°46' W 093°56'4 7.1
2018-Apr-25 15:00N 29°50' W 093°57'3 5.6
2018-Apr-25 14:30N 29°52' W 093°56'4 8.1
2018-Apr-25 14:00N 29°55' W 093°53'3 6.2
2018-Apr-25 13:30N 29°58' W 093°51'4 8.1
2018-Apr-25 13:00N 29°59' W 093°56'3 5.0
2018-Apr-25 12:30N 30°01' W 093°59'1 2.3
2018-Apr-25 12:00N 30°01' W 093°60'0 0.7
2018-Apr-25 11:30N 30°01' W 094°00'0 0.0
2018-Apr-25 10:58N 30°01' W 094°00'0 0.0
2018-Apr-25 10:28N 30°01' W 094°00'0 0.0
2018-Apr-25 09:55N 30°01' W 094°00'0 0.0
2018-Apr-25 09:28N 30°01' W 094°00'0 0.0
2018-Apr-25 08:58N 30°01' W 094°00'0 0.0
2018-Apr-25 08:25N 30°01' W 094°00'0 0.0
2018-Apr-25 07:58N 30°01' W 094°00'0 0.0
2018-Apr-25 07:28N 30°01' W 094°00'0 0.0
2018-Apr-25 06:58N 30°01' W 094°00'0 0.0
2018-Apr-25 06:25N 30°01' W 094°00'0 0.0
2018-Apr-25 05:58N 30°01' W 094°00'0 0.0
2018-Apr-25 05:25N 30°01' W 094°00'0 0.0
2018-Apr-25 04:58N 30°01' W 094°00'0 0.0
2018-Apr-25 04:28N 30°01' W 094°00'0 0.0
2018-Apr-25 03:58N 30°01' W 094°00'0 0.0
2018-Apr-25 03:28N 30°01' W 094°00'0 0.0
2018-Apr-25 02:58N 30°01' W 094°00'0 0.0
2018-Apr-25 02:28N 30°01' W 094°00'0 0.0
2018-Apr-25 01:55N 30°01' W 094°00'0 0.0
2018-Apr-25 01:28N 30°01' W 094°00'0 0.0
2018-Apr-25 00:58N 30°01' W 094°00'0 0.0
2018-Apr-25 00:28N 30°01' W 094°00'0 0.0
2018-Apr-24 23:58N 30°01' W 094°00'0 0.0
2018-Apr-24 23:25N 30°01' W 094°00'0 0.0
2018-Apr-24 22:58N 30°01' W 094°00'0 0.0
2018-Apr-24 22:25N 30°01' W 094°00'0 0.0
2018-Apr-24 21:58N 30°01' W 094°00'0 0.0
2018-Apr-24 21:28N 30°01' W 094°00'0 0.0
2018-Apr-24 20:58N 30°01' W 094°00'0 0.0
2018-Apr-24 20:28N 30°01' W 094°00'0 0.0
2018-Apr-24 19:58N 30°01' W 094°00'0 0.0
2018-Apr-24 19:28N 30°01' W 094°00'0 0.0
2018-Apr-24 18:58N 30°01' W 094°00'0 0.0
2018-Apr-24 18:28N 30°01' W 094°00'0 0.0
2018-Apr-24 17:58N 30°01' W 094°00'0 0.0
2018-Apr-24 17:28N 30°01' W 094°00'0 0.0
2018-Apr-24 16:55N 30°01' W 094°00'0 0.0
2018-Apr-24 16:28N 30°01' W 094°00'0 0.0
2018-Apr-24 15:58N 30°01' W 094°00'0 0.0
2018-Apr-24 15:28N 30°01' W 094°00'0 0.0
2018-Apr-24 14:55N 30°01' W 094°00'0 0.0
2018-Apr-24 14:28N 30°01' W 094°00'0 0.0
2018-Apr-24 13:58N 30°01' W 094°00'0 0.0
2018-Apr-24 13:28N 30°01' W 094°00'0 0.0
2018-Apr-24 12:58N 30°01' W 094°00'0 0.0
2018-Apr-24 12:25N 30°01' W 094°00'0 0.0
2018-Apr-24 11:58N 30°01' W 094°00'0 0.0
2018-Apr-24 11:28N 30°01' W 094°00'0 0.0
2018-Apr-24 10:55N 30°01' W 094°00'0 0.0
2018-Apr-24 10:28N 30°01' W 094°00'0 0.0
2018-Apr-24 09:55N 30°01' W 094°00'0 0.0
2018-Apr-24 09:28N 30°01' W 094°00'0 0.0
2018-Apr-24 08:58N 30°01' W 094°00'0 0.0
2018-Apr-24 08:28N 30°01' W 094°00'0 0.0
2018-Apr-24 07:58N 30°01' W 094°00'0 0.0
2018-Apr-24 07:28N 30°01' W 094°00'0 0.0
2018-Apr-24 06:58N 30°01' W 094°00'0 0.0
2018-Apr-24 06:28N 30°01' W 094°00'0 0.0
2018-Apr-24 05:58N 30°01' W 094°00'0 0.0
2018-Apr-24 05:28N 30°01' W 094°00'0 0.0
2018-Apr-24 04:55N 30°01' W 094°00'0 0.0
2018-Apr-24 04:28N 30°01' W 094°00'0 0.0
2018-Apr-24 03:55N 30°01' W 094°00'0 0.0
2018-Apr-24 03:28N 30°01' W 094°00'0 0.0
2018-Apr-24 02:55N 30°01' W 094°00'0 0.0
2018-Apr-24 02:28N 30°01' W 094°00'0 0.0
2018-Apr-24 01:58N 30°01' W 094°00'0 0.0
2018-Apr-24 01:28N 30°01' W 094°00'0 0.0
2018-Apr-24 00:58N 30°01' W 094°00'0 0.0
2018-Apr-24 00:28N 30°01' W 094°00'0 0.0
2018-Apr-23 23:58N 30°01' W 094°00'0 0.0
2018-Apr-23 23:28N 30°01' W 094°00'0 0.0
2018-Apr-23 22:55N 30°01' W 094°00'0 0.0
2018-Apr-23 22:28N 30°01' W 094°00'0 0.0
2018-Apr-23 21:58N 30°01' W 094°00'0 0.0
2018-Apr-23 21:25N 30°01' W 094°00'0 0.0
2018-Apr-23 20:55N 30°01' W 094°00'0 0.0
2018-Apr-23 20:28N 30°01' W 094°00'0 0.0
2018-Apr-23 19:58N 30°01' W 094°00'0 0.0
2018-Apr-23 19:28N 30°01' W 094°00'0 0.0
2018-Apr-23 18:58N 30°01' W 094°00'0 0.0
2018-Apr-23 18:28N 30°01' W 094°00'0 0.0
2018-Apr-23 17:55N 30°01' W 094°00'0 0.0
2018-Apr-23 17:28N 30°01' W 094°00'0 0.0
2018-Apr-23 16:58N 30°01' W 094°00'0 0.0
2018-Apr-23 16:25N 30°01' W 094°00'0 0.0
2018-Apr-23 15:58N 30°01' W 094°00'0 0.0
2018-Apr-23 15:28N 30°01' W 094°00'0 0.0
2018-Apr-23 14:58N 30°01' W 094°00'0 0.0
2018-Apr-23 14:28N 30°01' W 094°00'0 0.0
2018-Apr-23 13:58N 30°01' W 094°00'0 0.0
2018-Apr-23 13:28N 30°01' W 094°00'0 0.0
2018-Apr-23 12:58N 30°01' W 094°00'0 0.0
2018-Apr-23 12:28N 30°01' W 094°00'0 0.0
2018-Apr-23 11:55N 30°01' W 094°00'0 0.0
2018-Apr-23 11:28N 30°01' W 094°00'0 0.0
2018-Apr-23 10:58N 30°01' W 094°00'3 5.5
2018-Apr-23 10:30N 30°02' W 094°03'366.0
2018-Apr-23 10:28N 30°01' W 094°00'0 0.0
2018-Apr-23 09:46N 30°01' W 094°00'0 0.0
2018-Apr-23 09:28N 30°01' W 094°00'0 0.0
2018-Apr-23 08:52N 30°01' W 094°00'0 0.0
2018-Apr-23 08:28N 30°01' W 094°00'0 0.0
2018-Apr-23 07:58N 30°01' W 094°00'0 0.0
2018-Apr-23 07:28N 30°01' W 094°00'0 0.0
2018-Apr-23 06:55N 30°01' W 094°00'0 0.0
2018-Apr-23 06:28N 30°01' W 094°00'0 0.0
2018-Apr-23 05:58N 30°01' W 094°00'0 0.0
2018-Apr-23 05:28N 30°01' W 094°00'0 0.0
2018-Apr-23 04:58N 30°01' W 094°00'0 0.0
2018-Apr-23 04:28N 30°01' W 094°00'0 0.0
2018-Apr-23 03:58N 30°01' W 094°00'0 0.0
2018-Apr-23 03:28N 30°01' W 094°00'0 0.0
2018-Apr-23 02:58N 30°01' W 094°00'0 0.0
2018-Apr-23 02:28N 30°01' W 094°00'0 0.0
2018-Apr-23 01:58N 30°01' W 094°00'0 0.0
2018-Apr-23 01:25N 30°01' W 094°00'0 0.0
2018-Apr-23 00:58N 30°01' W 094°00'0 0.0
2018-Apr-23 00:28N 30°01' W 094°00'0 0.0
2018-Apr-23 00:00N 30°01' W 094°00'1 1.2
2018-Apr-22 23:30N 30°01' W 093°60'2 4.1
2018-Apr-22 23:00N 30°00' W 093°57'3 5.3
2018-Apr-22 22:30N 29°59' W 093°55'3 5.6
2018-Apr-22 22:00N 29°58' W 093°51'3 5.5
2018-Apr-22 21:30N 29°56' W 093°52'3 5.9
2018-Apr-22 21:00N 29°53' W 093°55'3 5.6
2018-Apr-22 20:30N 29°51' W 093°57'3 6.5
2018-Apr-22 20:00N 29°48' W 093°57'4 7.3
2018-Apr-22 19:30N 29°46' W 093°54'4 8.1
2018-Apr-22 19:00N 29°42' W 093°51'510.5
2018-Apr-22 18:30N 29°37' W 093°49'611.2
2018-Apr-22 18:00N 29°33' W 093°45'611.2
2018-Apr-22 17:30N 29°29' W 093°40'5 9.1
2018-Apr-22 17:00N 29°25' W 093°39'1 1.5
2018-Apr-22 16:30N 29°24' W 093°39'0 0.9
2018-Apr-22 16:00N 29°24' W 093°38'0 0.2
2018-Apr-22 15:26N 29°24' W 093°38'0 0.1
2018-Apr-22 14:59N 29°24' W 093°38'0 0.1
2018-Apr-22 14:29N 29°24' W 093°38'0 0.1
2018-Apr-22 13:59N 29°24' W 093°38'0 0.1
2018-Apr-22 13:29N 29°24' W 093°38'0 0.1
2018-Apr-22 12:59N 29°24' W 093°38'0 0.0
2018-Apr-22 12:29N 29°24' W 093°38'0 0.1
2018-Apr-22 11:59N 29°24' W 093°38'0 0.1
2018-Apr-22 11:20N 29°24' W 093°38'0 0.1
2018-Apr-22 10:17N 29°24' W 093°38'0 0.1
2018-Apr-22 09:56N 29°24' W 093°38'0 0.1
2018-Apr-22 09:26N 29°24' W 093°38'0 0.1
2018-Apr-22 08:59N 29°24' W 093°39'0 0.0
2018-Apr-22 08:29N 29°24' W 093°38'0 0.1
2018-Apr-22 07:59N 29°24' W 093°38'0 0.0
2018-Apr-22 07:29N 29°24' W 093°38'0 0.1
2018-Apr-22 06:56N 29°24' W 093°39'0 0.0
2018-Apr-22 05:38N 29°24' W 093°39'0 0.0
2018-Apr-22 05:14N 29°24' W 093°39'0 0.0
2018-Apr-22 04:59N 29°24' W 093°39'0 0.0
2018-Apr-22 03:50N 29°24' W 093°39'0 0.0
2018-Apr-22 03:29N 29°24' W 093°39'0 0.0
2018-Apr-22 02:05N 29°24' W 093°39'0 0.1
2018-Apr-22 01:59N 29°24' W 093°39'0 0.0
2018-Apr-22 01:29N 29°24' W 093°39'0 0.0
2018-Apr-22 00:50N 29°24' W 093°39'0 0.0
2018-Apr-22 00:26N 29°24' W 093°39'0 0.0
2018-Apr-21 23:56N 29°24' W 093°39'0 0.0
2018-Apr-21 23:29N 29°24' W 093°39'0 0.0
2018-Apr-21 22:59N 29°24' W 093°39'0 0.0
2018-Apr-21 22:29N 29°24' W 093°39'0 0.0
2018-Apr-21 21:59N 29°24' W 093°39'0 0.0
2018-Apr-21 21:29N 29°24' W 093°39'0 0.0
2018-Apr-21 20:59N 29°24' W 093°39'0 0.0
2018-Apr-21 20:29N 29°24' W 093°39'0 0.0
2018-Apr-21 19:59N 29°24' W 093°39'0 0.0
2018-Apr-21 19:26N 29°24' W 093°39'0 0.2
2018-Apr-21 18:50N 29°24' W 093°38'1 2.0
2018-Apr-21 18:30N 29°24' W 093°39'3 5.1
2018-Apr-21 18:00N 29°21' W 093°40'4 6.6
2018-Apr-21 17:25N 29°18' W 093°39'4810.1
2018-Apr-21 12:38N 28°34' W 094°05'1 2.6
2018-Apr-21 12:23N 28°34' W 094°05'2 1.4
2018-Apr-21 10:47N 28°36' W 094°03'0 1.2
2018-Apr-21 10:29N 28°36' W 094°03'1 0.9
2018-Apr-21 09:51N 28°36' W 094°02'1 1.3
2018-Apr-21 09:13N 28°36' W 094°03'0 1.3
2018-Apr-21 08:58N 28°36' W 094°03'0 0.3
2018-Apr-21 08:14N 28°36' W 094°03'1 2.7
2018-Apr-21 07:59N 28°36' W 094°04'4 2.9
2018-Apr-21 06:36N 28°33' W 094°07'0 2.8
2018-Apr-21 06:31N 28°33' W 094°07'  
Track history (hours):
 
Tides and Currents Weather Stations Pressure Air Temp Water Temp Dewpoint Dewpoint Depression Visibility Wind Speed Wind Dir Waves Ship Positions

Cap Romuald

Last reported at 2018-May-01 06:21 UTC. Time now 2018-May-20 13:53 UTC.
Position N 28°00' W 092°42'.
Warning: this ship's position is 19 days out of date.

Length 274 m; draft 10 m.

Type: Tanker. MMSI: 239574000.

Date/timePositionNaut miles runAvg speedWind from/ knotsBaromVisibWave heightAir tempDewpointWater temp
2018-May-01 06:21N 28°00' W 092°42'3 6.3
2018-May-01 05:56N 28°02' W 092°44'3 6.4
2018-May-01 05:30N 28°04' W 092°46'3 6.4
2018-May-01 05:00N 28°07' W 092°48'3 6.5
2018-May-01 04:29N 28°10' W 092°50'4 6.6
2018-May-01 03:52N 28°13' W 092°53'3 6.8
2018-May-01 03:26N 28°15' W 092°55'3 6.8
2018-May-01 02:59N 28°18' W 092°57'3 6.7
2018-May-01 02:30N 28°20' W 092°59'3 6.8
2018-May-01 02:00N 28°23' W 093°01'4 6.9
2018-May-01 01:28N 28°26' W 093°04'3 6.8
2018-May-01 00:59N 28°29' W 093°06'3 6.7
2018-May-01 00:29N 28°31' W 093°08'3 6.7
2018-May-01 00:00N 28°34' W 093°11'3 6.8
2018-Apr-30 23:30N 28°37' W 093°13'3 6.7
2018-Apr-30 23:00N 28°39' W 093°15'3 6.5
2018-Apr-30 22:29N 28°42' W 093°17'3 6.2
2018-Apr-30 22:01N 28°44' W 093°19'3 5.9
2018-Apr-30 21:29N 28°47' W 093°22'3 5.7
2018-Apr-30 20:59N 28°49' W 093°24'7 6.0
2018-Apr-30 19:51N 28°55' W 093°28'4 6.3
2018-Apr-30 19:14N 28°58' W 093°31'2 6.1
2018-Apr-30 18:59N 28°59' W 093°32'15 4.8
2018-Apr-30 15:59N 29°09' W 093°44'0 0.1
2018-Apr-30 14:35N 29°09' W 093°44'0 0.1
2018-Apr-30 13:32N 29°09' W 093°44'0 0.2
2018-Apr-30 13:29N 29°09' W 093°44'0 0.0
2018-Apr-30 11:50N 29°09' W 093°44'0 0.0
2018-Apr-30 11:29N 29°09' W 093°44'0 0.0
2018-Apr-30 10:59N 29°09' W 093°44'0 0.0
2018-Apr-30 08:26N 29°09' W 093°44'0 0.0
2018-Apr-30 07:41N 29°09' W 093°44'0 0.0
2018-Apr-30 07:29N 29°09' W 093°44'0 0.0
2018-Apr-30 06:59N 29°09' W 093°44'0 0.0
2018-Apr-30 06:29N 29°09' W 093°44'0 0.0
2018-Apr-30 05:50N 29°09' W 093°44'0 0.0
2018-Apr-30 05:29N 29°09' W 093°44'0 0.0
2018-Apr-30 04:59N 29°09' W 093°44'0 0.0
2018-Apr-30 04:29N 29°09' W 093°44'0 0.0
2018-Apr-30 03:59N 29°09' W 093°44'0 0.0
2018-Apr-30 03:29N 29°09' W 093°44'0 0.0
2018-Apr-30 02:50N 29°09' W 093°44'0 0.0
2018-Apr-30 02:20N 29°09' W 093°44'0 0.0
2018-Apr-30 01:59N 29°09' W 093°44'0 0.0
2018-Apr-30 01:29N 29°09' W 093°44'0 0.0
2018-Apr-30 00:56N 29°09' W 093°44'0 0.1
2018-Apr-30 00:26N 29°09' W 093°44'0 0.1
2018-Apr-29 23:59N 29°09' W 093°44'0 0.1
2018-Apr-29 23:14N 29°09' W 093°44'0 0.0
2018-Apr-29 22:53N 29°09' W 093°44'0 0.0
2018-Apr-29 22:29N 29°09' W 093°44'0 0.0
2018-Apr-29 21:38N 29°09' W 093°44'0 0.0
2018-Apr-29 21:26N 29°09' W 093°44'0 0.0
2018-Apr-29 19:05N 29°09' W 093°44'0 0.0
2018-Apr-29 18:50N 29°09' W 093°44'0 0.0
2018-Apr-29 18:26N 29°09' W 093°44'0 0.1
2018-Apr-29 17:59N 29°09' W 093°44'0 0.1
2018-Apr-29 17:29N 29°09' W 093°44'0 0.1
2018-Apr-29 16:59N 29°09' W 093°44'0 0.1
2018-Apr-29 16:26N 29°09' W 093°44'0 0.1
2018-Apr-29 15:59N 29°09' W 093°44'0 0.1
2018-Apr-29 15:29N 29°09' W 093°44'0 0.0
2018-Apr-29 14:53N 29°09' W 093°44'0 0.0
2018-Apr-29 14:29N 29°09' W 093°44'0 0.0
2018-Apr-29 13:59N 29°09' W 093°44'0 0.0
2018-Apr-29 13:29N 29°09' W 093°44'0 0.1
2018-Apr-29 10:59N 29°09' W 093°44'0 0.0
2018-Apr-29 10:17N 29°09' W 093°44'0 0.0
2018-Apr-29 09:56N 29°09' W 093°44'0 0.0
2018-Apr-29 09:20N 29°09' W 093°44'0 0.0
2018-Apr-29 08:59N 29°09' W 093°44'0 0.0
2018-Apr-29 08:17N 29°09' W 093°44'0 0.0
2018-Apr-29 07:56N 29°09' W 093°44'0 0.0
2018-Apr-29 07:20N 29°09' W 093°44'0 0.0
2018-Apr-29 06:50N 29°09' W 093°44'0 0.0
2018-Apr-29 06:26N 29°09' W 093°44'0 0.0
2018-Apr-29 05:59N 29°09' W 093°44'0 0.0
2018-Apr-29 05:29N 29°09' W 093°44'0 0.0
2018-Apr-29 04:59N 29°09' W 093°44'0 0.0
2018-Apr-29 04:29N 29°09' W 093°44'0 0.0
2018-Apr-29 03:59N 29°09' W 093°44'0 0.0
2018-Apr-29 03:23N 29°09' W 093°44'0 0.0
2018-Apr-29 02:53N 29°09' W 093°44'0 0.0
2018-Apr-29 02:29N 29°09' W 093°44'0 0.0
2018-Apr-29 01:50N 29°09' W 093°44'0 0.0
2018-Apr-29 01:29N 29°09' W 093°44'0 0.0
2018-Apr-28 16:05N 29°09' W 093°44'0 0.0
2018-Apr-28 15:59N 29°09' W 093°44'0 0.0
2018-Apr-28 15:29N 29°09' W 093°44'0 0.0
2018-Apr-28 14:56N 29°09' W 093°44'0 0.0
2018-Apr-28 13:44N 29°09' W 093°44'0 0.0
2018-Apr-28 13:29N 29°09' W 093°44'0 0.0
2018-Apr-28 12:50N 29°09' W 093°44'0 0.0
2018-Apr-28 12:29N 29°09' W 093°44'0 0.0
2018-Apr-28 11:44N 29°09' W 093°44'0 0.0
2018-Apr-28 11:29N 29°09' W 093°44'0 0.0
2018-Apr-28 10:56N 29°09' W 093°44'0 0.0
2018-Apr-28 10:26N 29°09' W 093°44'0 0.0
2018-Apr-28 09:59N 29°09' W 093°44'0 0.0
2018-Apr-28 09:29N 29°09' W 093°44'0 0.0
2018-Apr-28 08:59N 29°09' W 093°44'0 0.0
2018-Apr-28 08:02N 29°09' W 093°44'0 0.1
2018-Apr-28 07:56N 29°09' W 093°44'0 0.0
2018-Apr-28 07:26N 29°09' W 093°44'0 0.0
2018-Apr-28 06:53N 29°09' W 093°44'0 0.0
2018-Apr-28 06:20N 29°09' W 093°44'0 0.0
2018-Apr-28 05:59N 29°09' W 093°44'0 0.0
2018-Apr-28 02:26N 29°09' W 093°44'0 0.0
2018-Apr-28 01:53N 29°09' W 093°44'0 0.0
2018-Apr-27 11:23N 29°09' W 093°44'0 0.0
2018-Apr-27 09:32N 29°09' W 093°44'0 0.1
2018-Apr-27 09:17N 29°09' W 093°44'0 0.1
2018-Apr-27 07:50N 29°09' W 093°44'0 0.0
2018-Apr-26 17:23N 29°09' W 093°44'0 0.0
2018-Apr-26 15:53N 29°09' W 093°44'0 0.0
2018-Apr-26 15:20N 29°09' W 093°44'0 0.0
2018-Apr-26 14:32N 29°09' W 093°44'0 0.0
2018-Apr-26 12:56N 29°09' W 093°44'0 0.0
2018-Apr-26 12:20N 29°09' W 093°44'0 0.1
2018-Apr-26 11:59N 29°09' W 093°44'0 0.0
2018-Apr-26 11:29N 29°09' W 093°44'0 0.0
2018-Apr-26 05:26N 29°09' W 093°44'0 0.0
2018-Apr-26 04:59N 29°09' W 093°44'0 0.0
2018-Apr-26 04:29N 29°09' W 093°44'0 0.0
2018-Apr-26 03:59N 29°09' W 093°44'0 0.0
2018-Apr-26 03:29N 29°09' W 093°44'0 0.0
2018-Apr-26 02:44N 29°09' W 093°44'0 0.0
2018-Apr-26 02:29N 29°09' W 093°44'0 0.0
2018-Apr-26 01:59N 29°09' W 093°44'0 0.0
2018-Apr-25 22:59N 29°09' W 093°44'0 0.0
2018-Apr-25 21:11N 29°09' W 093°44'0 0.0
2018-Apr-25 20:50N 29°09' W 093°44'0 0.0
2018-Apr-25 20:26N 29°09' W 093°44'1 1.1
2018-Apr-25 19:48N 29°10' W 093°44'1 5.1
2018-Apr-25 19:30N 29°11' W 093°42'4 8.1
2018-Apr-25 19:00N 29°14' W 093°39'713.0
2018-Apr-25 18:30N 29°20' W 093°40'612.0
2018-Apr-25 18:00N 29°26' W 093°40'5 9.1
2018-Apr-25 17:30N 29°31' W 093°42'611.5
2018-Apr-25 17:00N 29°35' W 093°47'612.4
2018-Apr-25 16:30N 29°40' W 093°50'5 9.6
2018-Apr-25 16:00N 29°44' W 093°53'4 7.6
2018-Apr-25 15:30N 29°46' W 093°56'4 7.1
2018-Apr-25 15:00N 29°50' W 093°57'3 5.6
2018-Apr-25 14:30N 29°52' W 093°56'4 8.1
2018-Apr-25 14:00N 29°55' W 093°53'3 6.2
2018-Apr-25 13:30N 29°58' W 093°51'4 8.1
2018-Apr-25 13:00N 29°59' W 093°56'3 5.0
2018-Apr-25 12:30N 30°01' W 093°59'1 2.3
2018-Apr-25 12:00N 30°01' W 093°60'0 0.7
2018-Apr-25 11:30N 30°01' W 094°00'0 0.0
2018-Apr-25 10:58N 30°01' W 094°00'0 0.0
2018-Apr-25 10:28N 30°01' W 094°00'0 0.0
2018-Apr-25 09:55N 30°01' W 094°00'0 0.0
2018-Apr-25 09:28N 30°01' W 094°00'0 0.0
2018-Apr-25 08:58N 30°01' W 094°00'0 0.0
2018-Apr-25 08:25N 30°01' W 094°00'0 0.0
2018-Apr-25 07:58N 30°01' W 094°00'0 0.0
2018-Apr-25 07:28N 30°01' W 094°00'0 0.0
2018-Apr-25 06:58N 30°01' W 094°00'0 0.0
2018-Apr-25 06:25N 30°01' W 094°00'0 0.0
2018-Apr-25 05:58N 30°01' W 094°00'0 0.0
2018-Apr-25 05:25N 30°01' W 094°00'0 0.0
2018-Apr-25 04:58N 30°01' W 094°00'0 0.0
2018-Apr-25 04:28N 30°01' W 094°00'0 0.0
2018-Apr-25 03:58N 30°01' W 094°00'0 0.0
2018-Apr-25 03:28N 30°01' W 094°00'0 0.0
2018-Apr-25 02:58N 30°01' W 094°00'0 0.0
2018-Apr-25 02:28N 30°01' W 094°00'0 0.0
2018-Apr-25 01:55N 30°01' W 094°00'0 0.0
2018-Apr-25 01:28N 30°01' W 094°00'0 0.0
2018-Apr-25 00:58N 30°01' W 094°00'0 0.0
2018-Apr-25 00:28N 30°01' W 094°00'0 0.0
2018-Apr-24 23:58N 30°01' W 094°00'0 0.0
2018-Apr-24 23:25N 30°01' W 094°00'0 0.0
2018-Apr-24 22:58N 30°01' W 094°00'0 0.0
2018-Apr-24 22:25N 30°01' W 094°00'0 0.0
2018-Apr-24 21:58N 30°01' W 094°00'0 0.0
2018-Apr-24 21:28N 30°01' W 094°00'0 0.0
2018-Apr-24 20:58N 30°01' W 094°00'0 0.0
2018-Apr-24 20:28N 30°01' W 094°00'0 0.0
2018-Apr-24 19:58N 30°01' W 094°00'0 0.0
2018-Apr-24 19:28N 30°01' W 094°00'0 0.0
2018-Apr-24 18:58N 30°01' W 094°00'0 0.0
2018-Apr-24 18:28N 30°01' W 094°00'0 0.0
2018-Apr-24 17:58N 30°01' W 094°00'0 0.0
2018-Apr-24 17:28N 30°01' W 094°00'0 0.0
2018-Apr-24 16:55N 30°01' W 094°00'0 0.0
2018-Apr-24 16:28N 30°01' W 094°00'0 0.0
2018-Apr-24 15:58N 30°01' W 094°00'0 0.0
2018-Apr-24 15:28N 30°01' W 094°00'0 0.0
2018-Apr-24 14:55N 30°01' W 094°00'0 0.0
2018-Apr-24 14:28N 30°01' W 094°00'0 0.0
2018-Apr-24 13:58N 30°01' W 094°00'0 0.0
2018-Apr-24 13:28N 30°01' W 094°00'0 0.0
2018-Apr-24 12:58N 30°01' W 094°00'0 0.0
2018-Apr-24 12:25N 30°01' W 094°00'0 0.0
2018-Apr-24 11:58N 30°01' W 094°00'0 0.0
2018-Apr-24 11:28N 30°01' W 094°00'0 0.0
2018-Apr-24 10:55N 30°01' W 094°00'0 0.0
2018-Apr-24 10:28N 30°01' W 094°00'0 0.0
2018-Apr-24 09:55N 30°01' W 094°00'0 0.0
2018-Apr-24 09:28N 30°01' W 094°00'0 0.0
2018-Apr-24 08:58N 30°01' W 094°00'0 0.0
2018-Apr-24 08:28N 30°01' W 094°00'0 0.0
2018-Apr-24 07:58N 30°01' W 094°00'0 0.0
2018-Apr-24 07:28N 30°01' W 094°00'0 0.0
2018-Apr-24 06:58N 30°01' W 094°00'0 0.0
2018-Apr-24 06:28N 30°01' W 094°00'0 0.0
2018-Apr-24 05:58N 30°01' W 094°00'0 0.0
2018-Apr-24 05:28N 30°01' W 094°00'0 0.0
2018-Apr-24 04:55N 30°01' W 094°00'0 0.0
2018-Apr-24 04:28N 30°01' W 094°00'0 0.0
2018-Apr-24 03:55N 30°01' W 094°00'0 0.0
2018-Apr-24 03:28N 30°01' W 094°00'0 0.0
2018-Apr-24 02:55N 30°01' W 094°00'0 0.0
2018-Apr-24 02:28N 30°01' W 094°00'0 0.0
2018-Apr-24 01:58N 30°01' W 094°00'0 0.0
2018-Apr-24 01:28N 30°01' W 094°00'0 0.0
2018-Apr-24 00:58N 30°01' W 094°00'0 0.0
2018-Apr-24 00:28N 30°01' W 094°00'0 0.0
2018-Apr-23 23:58N 30°01' W 094°00'0 0.0
2018-Apr-23 23:28N 30°01' W 094°00'0 0.0
2018-Apr-23 22:55N 30°01' W 094°00'0 0.0
2018-Apr-23 22:28N 30°01' W 094°00'0 0.0
2018-Apr-23 21:58N 30°01' W 094°00'0 0.0
2018-Apr-23 21:25N 30°01' W 094°00'0 0.0
2018-Apr-23 20:55N 30°01' W 094°00'0 0.0
2018-Apr-23 20:28N 30°01' W 094°00'0 0.0
2018-Apr-23 19:58N 30°01' W 094°00'0 0.0
2018-Apr-23 19:28N 30°01' W 094°00'0 0.0
2018-Apr-23 18:58N 30°01' W 094°00'0 0.0
2018-Apr-23 18:28N 30°01' W 094°00'0 0.0
2018-Apr-23 17:55N 30°01' W 094°00'0 0.0
2018-Apr-23 17:28N 30°01' W 094°00'0 0.0
2018-Apr-23 16:58N 30°01' W 094°00'0 0.0
2018-Apr-23 16:25N 30°01' W 094°00'0 0.0
2018-Apr-23 15:58N 30°01' W 094°00'0 0.0
2018-Apr-23 15:28N 30°01' W 094°00'0 0.0
2018-Apr-23 14:58N 30°01' W 094°00'0 0.0
2018-Apr-23 14:28N 30°01' W 094°00'0 0.0
2018-Apr-23 13:58N 30°01' W 094°00'0 0.0
2018-Apr-23 13:28N 30°01' W 094°00'0 0.0
2018-Apr-23 12:58N 30°01' W 094°00'0 0.0
2018-Apr-23 12:28N 30°01' W 094°00'0 0.0
2018-Apr-23 11:55N 30°01' W 094°00'0 0.0
2018-Apr-23 11:28N 30°01' W 094°00'0 0.0
2018-Apr-23 10:58N 30°01' W 094°00'3 5.5
2018-Apr-23 10:30N 30°02' W 094°03'366.0
2018-Apr-23 10:28N 30°01' W 094°00'0 0.0
2018-Apr-23 09:46N 30°01' W 094°00'0 0.0
2018-Apr-23 09:28N 30°01' W 094°00'0 0.0
2018-Apr-23 08:52N 30°01' W 094°00'0 0.0
2018-Apr-23 08:28N 30°01' W 094°00'0 0.0
2018-Apr-23 07:58N 30°01' W 094°00'0 0.0
2018-Apr-23 07:28N 30°01' W 094°00'0 0.0
2018-Apr-23 06:55N 30°01' W 094°00'0 0.0
2018-Apr-23 06:28N 30°01' W 094°00'0 0.0
2018-Apr-23 05:58N 30°01' W 094°00'0 0.0
2018-Apr-23 05:28N 30°01' W 094°00'0 0.0
2018-Apr-23 04:58N 30°01' W 094°00'0 0.0
2018-Apr-23 04:28N 30°01' W 094°00'0 0.0
2018-Apr-23 03:58N 30°01' W 094°00'0 0.0
2018-Apr-23 03:28N 30°01' W 094°00'0 0.0
2018-Apr-23 02:58N 30°01' W 094°00'0 0.0
2018-Apr-23 02:28N 30°01' W 094°00'0 0.0
2018-Apr-23 01:58N 30°01' W 094°00'0 0.0
2018-Apr-23 01:25N 30°01' W 094°00'0 0.0
2018-Apr-23 00:58N 30°01' W 094°00'0 0.0
2018-Apr-23 00:28N 30°01' W 094°00'0 0.0
2018-Apr-23 00:00N 30°01' W 094°00'1 1.2
2018-Apr-22 23:30N 30°01' W 093°60'2 4.1
2018-Apr-22 23:00N 30°00' W 093°57'3 5.3
2018-Apr-22 22:30N 29°59' W 093°55'3 5.6
2018-Apr-22 22:00N 29°58' W 093°51'3 5.5
2018-Apr-22 21:30N 29°56' W 093°52'3 5.9
2018-Apr-22 21:00N 29°53' W 093°55'3 5.6
2018-Apr-22 20:30N 29°51' W 093°57'3 6.5
2018-Apr-22 20:00N 29°48' W 093°57'4 7.3
2018-Apr-22 19:30N 29°46' W 093°54'4 8.1
2018-Apr-22 19:00N 29°42' W 093°51'510.5
2018-Apr-22 18:30N 29°37' W 093°49'611.2
2018-Apr-22 18:00N 29°33' W 093°45'611.2
2018-Apr-22 17:30N 29°29' W 093°40'5 9.1
2018-Apr-22 17:00N 29°25' W 093°39'1 1.5
2018-Apr-22 16:30N 29°24' W 093°39'0 0.9
2018-Apr-22 16:00N 29°24' W 093°38'0 0.2
2018-Apr-22 15:26N 29°24' W 093°38'0 0.1
2018-Apr-22 14:59N 29°24' W 093°38'0 0.1
2018-Apr-22 14:29N 29°24' W 093°38'0 0.1
2018-Apr-22 13:59N 29°24' W 093°38'0 0.1
2018-Apr-22 13:29N 29°24' W 093°38'0 0.1
2018-Apr-22 12:59N 29°24' W 093°38'0 0.0
2018-Apr-22 12:29N 29°24' W 093°38'0 0.1
2018-Apr-22 11:59N 29°24' W 093°38'0 0.1
2018-Apr-22 11:20N 29°24' W 093°38'0 0.1
2018-Apr-22 10:17N 29°24' W 093°38'0 0.1
2018-Apr-22 09:56N 29°24' W 093°38'0 0.1
2018-Apr-22 09:26N 29°24' W 093°38'0 0.1
2018-Apr-22 08:59N 29°24' W 093°39'0 0.0
2018-Apr-22 08:29N 29°24' W 093°38'0 0.1
2018-Apr-22 07:59N 29°24' W 093°38'0 0.0
2018-Apr-22 07:29N 29°24' W 093°38'0 0.1
2018-Apr-22 06:56N 29°24' W 093°39'0 0.0
2018-Apr-22 05:38N 29°24' W 093°39'0 0.0
2018-Apr-22 05:14N 29°24' W 093°39'0 0.0
2018-Apr-22 04:59N 29°24' W 093°39'0 0.0
2018-Apr-22 03:50N 29°24' W 093°39'0 0.0
2018-Apr-22 03:29N 29°24' W 093°39'0 0.0
2018-Apr-22 02:05N 29°24' W 093°39'0 0.1
2018-Apr-22 01:59N 29°24' W 093°39'0 0.0
2018-Apr-22 01:29N 29°24' W 093°39'0 0.0
2018-Apr-22 00:50N 29°24' W 093°39'0 0.0
2018-Apr-22 00:26N 29°24' W 093°39'0 0.0
2018-Apr-21 23:56N 29°24' W 093°39'0 0.0
2018-Apr-21 23:29N 29°24' W 093°39'0 0.0
2018-Apr-21 22:59N 29°24' W 093°39'0 0.0
2018-Apr-21 22:29N 29°24' W 093°39'0 0.0
2018-Apr-21 21:59N 29°24' W 093°39'0 0.0
2018-Apr-21 21:29N 29°24' W 093°39'0 0.0
2018-Apr-21 20:59N 29°24' W 093°39'0 0.0
2018-Apr-21 20:29N 29°24' W 093°39'0 0.0
2018-Apr-21 19:59N 29°24' W 093°39'0 0.0
2018-Apr-21 19:26N 29°24' W 093°39'0 0.2
2018-Apr-21 18:50N 29°24' W 093°38'1 2.0
2018-Apr-21 18:30N 29°24' W 093°39'3 5.1
2018-Apr-21 18:00N 29°21' W 093°40'4 6.6
2018-Apr-21 17:25N 29°18' W 093°39'4810.1
2018-Apr-21 12:38N 28°34' W 094°05'1 2.6
2018-Apr-21 12:23N 28°34' W 094°05'2 1.4
2018-Apr-21 10:47N 28°36' W 094°03'0 1.2
2018-Apr-21 10:29N 28°36' W 094°03'1 0.9
2018-Apr-21 09:51N 28°36' W 094°02'1 1.3
2018-Apr-21 09:13N 28°36' W 094°03'0 1.3
2018-Apr-21 08:58N 28°36' W 094°03'0 0.3
2018-Apr-21 08:14N 28°36' W 094°03'1 2.7
2018-Apr-21 07:59N 28°36' W 094°04'4 2.9
2018-Apr-21 06:36N 28°33' W 094°07'0 2.8
2018-Apr-21 06:31N 28°33' W 094°07'  

Dump ship's entire track history